createdAt,value
2022-12-19T00:00:35.808Z,54.88
2022-12-19T00:03:04.126Z,54.03
2022-12-19T00:05:33.055Z,57.90
2022-12-19T00:08:04.264Z,56.90
2022-12-19T00:10:56.467Z,53.80
2022-12-19T00:13:25.106Z,53.00
2022-12-19T00:15:53.725Z,57.83
2022-12-19T00:18:22.548Z,55.20
2022-12-19T00:20:58.209Z,62.25
2022-12-19T00:23:26.884Z,55.85
2022-12-19T00:25:56.853Z,54.13
2022-12-19T00:28:25.124Z,54.67
2022-12-19T00:30:53.426Z,55.38
2022-12-19T00:33:23.885Z,57.15
2022-12-19T00:35:52.035Z,54.13
2022-12-19T00:38:20.318Z,56.35
2022-12-19T00:40:48.677Z,52.65
2022-12-19T00:43:19.349Z,51.20
2022-12-19T00:45:47.891Z,49.88
2022-12-19T00:48:16.526Z,52.10
2022-12-19T00:50:46.801Z,47.22
2022-12-19T00:53:15.109Z,44.53
2022-12-19T00:55:43.591Z,45.08
2022-12-19T00:58:12.107Z,41.58
2022-12-19T01:00:41.926Z,41.10
2022-12-19T01:03:11.738Z,37.05
2022-12-19T01:05:42.017Z,35.92
2022-12-19T01:08:10.548Z,33.80
2022-12-19T01:10:38.991Z,35.25
2022-12-19T01:13:06.207Z,37.03
2022-12-19T01:15:34.573Z,36.10
2022-12-19T01:18:04.436Z,39.42
2022-12-19T01:20:32.603Z,43.80
2022-12-19T01:23:00.997Z,34.90
2022-12-19T01:25:29.504Z,39.72
2022-12-19T01:27:58.371Z,38.47
2022-12-19T01:30:29.072Z,37.13
2022-12-19T01:32:58.518Z,39.47
2022-12-19T01:35:29.418Z,34.30
2022-12-19T01:38:07.882Z,34.75
2022-12-19T01:40:37.582Z,36.53
2022-12-19T01:43:06.679Z,30.95
2022-12-19T01:45:43.639Z,32.15
2022-12-19T01:48:18.516Z,33.28
2022-12-19T01:51:00.509Z,31.83
2022-12-19T01:53:40.192Z,31.38
2022-12-19T01:56:18.640Z,27.80
2022-12-19T01:58:48.355Z,31.33
2022-12-19T02:01:18.819Z,27.15
2022-12-19T02:03:48.381Z,32.45
2022-12-19T02:06:18.743Z,28.52
2022-12-19T02:08:49.918Z,26.80
2022-12-19T02:11:18.387Z,28.05
2022-12-19T02:13:47.288Z,30.25
2022-12-19T02:16:30.285Z,26.23
2022-12-19T02:19:09.459Z,25.83
2022-12-19T02:21:51.169Z,32.63
2022-12-19T02:25:01.043Z,29.45
2022-12-19T02:28:00.060Z,28.70
2022-12-19T02:30:55.706Z,29.98
2022-12-19T02:33:32.942Z,26.60
2022-12-19T02:36:09.115Z,28.92
2022-12-19T02:38:43.224Z,29.27
2022-12-19T02:41:17.998Z,28.52
2022-12-19T02:43:50.778Z,28.90
2022-12-19T02:46:29.639Z,31.30
2022-12-19T02:48:59.123Z,28.20
2022-12-19T02:51:27.359Z,29.80
2022-12-19T02:53:56.072Z,26.40
2022-12-19T02:56:34.909Z,29.80
2022-12-19T02:59:19.705Z,27.58
2022-12-19T03:01:54.508Z,27.33
2022-12-19T03:04:32.998Z,27.13
2022-12-19T03:07:05.300Z,27.35
2022-12-19T03:09:44.731Z,25.88
2022-12-19T03:12:18.208Z,26.25
2022-12-19T03:14:48.097Z,24.15
2022-12-19T03:17:21.118Z,26.10
2022-12-19T03:19:49.518Z,27.38
2022-12-19T03:22:17.941Z,25.20
2022-12-19T03:24:46.205Z,24.42
2022-12-19T03:27:21.577Z,25.73
2022-12-19T03:29:55.091Z,23.45
2022-12-19T03:32:26.157Z,20.75
2022-12-19T03:34:58.907Z,25.30
2022-12-19T03:37:32.979Z,21.90
2022-12-19T03:40:04.042Z,21.70
2022-12-19T03:42:51.710Z,22.13
2022-12-19T03:45:27.113Z,18.90
2022-12-19T03:48:00.764Z,21.33
2022-12-19T03:53:06.901Z,20.40
2022-12-19T03:55:42.752Z,19.10
2022-12-19T03:58:14.168Z,22.25
2022-12-19T04:00:47.510Z,18.90
2022-12-19T04:03:19.677Z,17.35
2022-12-19T04:05:49.941Z,19.20
2022-12-19T04:08:18.787Z,18.58
2022-12-19T04:10:53.088Z,17.20
2022-12-19T04:13:25.101Z,21.88
2022-12-19T04:16:01.622Z,18.30
2022-12-19T04:18:32.473Z,18.90
2022-12-19T04:21:05.524Z,18.30
2022-12-19T04:23:37.011Z,18.05
2022-12-19T04:26:07.843Z,20.98
2022-12-19T04:28:39.982Z,19.55
2022-12-19T04:31:09.333Z,17.23
2022-12-19T04:33:39.223Z,19.00
2022-12-19T04:36:08.343Z,20.42
2022-12-19T04:38:36.732Z,19.23
2022-12-19T04:41:05.395Z,20.00
2022-12-19T04:43:33.777Z,19.13
2022-12-19T04:46:02.253Z,19.17
2022-12-19T04:48:30.586Z,19.27
2022-12-19T04:51:00.825Z,17.67
2022-12-19T04:53:29.850Z,18.48
2022-12-19T04:56:02.736Z,17.55
2022-12-19T04:58:31.479Z,18.65
2022-12-19T05:01:02.777Z,19.77
2022-12-19T05:03:31.485Z,18.23
2022-12-19T05:06:10.169Z,17.98
2022-12-19T05:08:40.569Z,20.23
2022-12-19T05:11:13.350Z,18.83
2022-12-19T05:13:46.171Z,18.38
2022-12-19T05:16:15.992Z,16.42
2022-12-19T05:18:44.456Z,19.90
2022-12-19T05:21:14.604Z,18.85
2022-12-19T05:23:42.861Z,20.05
2022-12-19T05:26:12.799Z,18.70
2022-12-19T05:28:41.656Z,17.70
2022-12-19T05:31:11.910Z,18.30
2022-12-19T05:33:41.411Z,17.05
2022-12-19T05:36:10.966Z,15.38
2022-12-19T05:38:40.683Z,15.95
2022-12-19T05:41:09.890Z,15.48
2022-12-19T05:43:38.348Z,17.17
2022-12-19T05:46:07.509Z,17.00
2022-12-19T05:48:36.256Z,15.65
2022-12-19T05:51:04.997Z,18.08
2022-12-19T05:53:33.346Z,15.98
2022-12-19T05:56:08.628Z,17.50
2022-12-19T05:58:38.326Z,14.60
2022-12-19T06:01:08.397Z,14.82
2022-12-19T06:03:36.796Z,15.85
2022-12-19T06:06:06.327Z,15.98
2022-12-19T06:08:35.290Z,16.13
2022-12-19T06:11:05.341Z,18.35
2022-12-19T06:13:35.842Z,16.73
2022-12-19T06:16:07.107Z,15.32
2022-12-19T06:18:39.397Z,13.82
2022-12-19T06:21:14.631Z,13.93
2022-12-19T06:23:43.649Z,15.13
2022-12-19T06:26:19.152Z,13.90
2022-12-19T06:28:50.820Z,15.27
2022-12-19T06:31:20.139Z,13.85
2022-12-19T06:33:48.446Z,13.73
2022-12-19T06:36:20.260Z,13.05
2022-12-19T06:38:48.848Z,13.32
2022-12-19T06:41:35.671Z,14.93
2022-12-19T06:44:07.748Z,16.17
2022-12-19T06:46:37.120Z,14.07
2022-12-19T06:49:06.880Z,15.13
2022-12-19T06:51:35.543Z,16.40
2022-12-19T06:54:04.463Z,13.30
2022-12-19T06:56:36.468Z,14.38
2022-12-19T06:59:07.087Z,14.40
2022-12-19T07:01:52.595Z,12.27
2022-12-19T07:04:26.395Z,12.63
2022-12-19T07:09:22.823Z,13.63
2022-12-19T07:11:51.512Z,14.55
2022-12-19T07:14:21.556Z,12.90
2022-12-19T07:16:53.098Z,12.35
2022-12-19T07:19:22.278Z,13.65
2022-12-19T07:21:50.754Z,12.68
2022-12-19T07:24:19.161Z,11.45
2022-12-19T07:26:47.649Z,12.88
2022-12-19T07:29:16.226Z,12.70
2022-12-19T07:31:46.090Z,13.38
2022-12-19T07:34:14.495Z,14.63
2022-12-19T07:36:43.058Z,13.52
2022-12-19T07:39:11.620Z,12.10
2022-12-19T07:41:40.202Z,13.45
2022-12-19T07:44:09.207Z,11.65
2022-12-19T07:46:37.507Z,12.65
2022-12-19T07:49:07.111Z,11.05
2022-12-19T07:51:35.568Z,12.10
2022-12-19T07:54:04.705Z,10.23
2022-12-19T07:56:33.009Z,11.90
2022-12-19T07:59:01.644Z,13.45
2022-12-19T08:01:30.458Z,9.82
2022-12-19T08:03:59.471Z,10.45
2022-12-19T08:06:29.911Z,10.45
2022-12-19T08:08:58.517Z,11.55
2022-12-19T08:11:29.374Z,9.70
2022-12-19T08:13:58.649Z,10.82
2022-12-19T08:16:29.123Z,9.57
2022-12-19T08:18:57.490Z,11.15
2022-12-19T08:21:26.283Z,9.68
2022-12-19T08:23:55.957Z,10.05
2022-12-19T08:26:26.042Z,12.38
2022-12-19T08:28:55.453Z,11.38
2022-12-19T08:31:25.792Z,9.07
2022-12-19T08:33:54.963Z,10.43
2022-12-19T08:36:23.815Z,11.02
2022-12-19T08:38:52.493Z,11.23
2022-12-19T08:41:22.180Z,9.88
2022-12-19T08:43:52.128Z,10.57
2022-12-19T08:46:21.512Z,10.05
2022-12-19T08:48:50.084Z,10.70
2022-12-19T08:51:19.532Z,11.15
2022-12-19T08:53:48.930Z,9.98
2022-12-19T08:56:19.852Z,10.73
2022-12-19T08:58:52.269Z,9.23
2022-12-19T09:01:24.065Z,12.82
2022-12-19T09:04:29.835Z,9.90
2022-12-19T09:06:41.213Z,12.10
2022-12-19T09:09:09.497Z,11.80
2022-12-19T09:11:46.598Z,12.27
2022-12-19T09:14:20.899Z,10.45
2022-12-19T09:16:49.476Z,12.67
2022-12-19T09:19:18.190Z,11.48
2022-12-19T09:21:46.811Z,12.40
2022-12-19T09:24:15.230Z,10.80
2022-12-19T09:26:44.554Z,12.68
2022-12-19T09:29:20.570Z,11.68
2022-12-19T09:31:56.668Z,12.55
2022-12-19T09:34:38.010Z,14.82
2022-12-19T09:37:08.645Z,11.77
2022-12-19T09:39:37.220Z,11.65
2022-12-19T09:42:41.074Z,10.65
2022-12-19T09:45:34.318Z,12.32
2022-12-19T09:48:05.887Z,11.50
2022-12-19T09:50:46.738Z,11.35
2022-12-19T09:53:22.741Z,12.00
2022-12-19T09:55:54.164Z,10.27
2022-12-19T09:58:33.290Z,10.30
2022-12-19T10:01:07.957Z,12.43
2022-12-19T10:03:42.669Z,12.10
2022-12-19T10:07:22.189Z,13.07
2022-12-19T10:10:24.146Z,13.55
2022-12-19T10:12:44.328Z,11.10
2022-12-19T10:15:07.582Z,9.77
2022-12-19T10:17:51.896Z,9.68
2022-12-19T10:20:30.913Z,9.50
2022-12-19T10:23:13.327Z,9.52
2022-12-19T10:25:58.583Z,10.07
2022-12-19T10:28:46.456Z,8.65
2022-12-19T10:31:22.309Z,9.05
2022-12-19T10:33:57.135Z,9.63
2022-12-19T10:36:55.987Z,10.73
2022-12-19T10:39:28.504Z,8.95
2022-12-19T10:42:04.614Z,7.72
2022-12-19T10:44:37.974Z,9.50
2022-12-19T10:47:06.567Z,6.85
2022-12-19T10:49:34.755Z,9.93
2022-12-19T10:52:06.102Z,8.90
2022-12-19T10:54:43.905Z,6.57
2022-12-19T10:57:26.454Z,8.82
2022-12-19T10:59:59.695Z,8.32
2022-12-19T11:02:41.343Z,6.90
2022-12-19T11:05:27.685Z,8.52
2022-12-19T11:08:11.651Z,6.78
2022-12-19T11:18:38.511Z,10.40
2022-12-19T11:22:51.738Z,7.03
2022-12-19T11:29:19.085Z,9.45
2022-12-19T11:30:06.174Z,7.47
2022-12-19T11:30:39.633Z,9.13
2022-12-19T11:30:42.812Z,8.30
2022-12-19T11:34:05.440Z,8.25
2022-12-19T11:36:38.944Z,7.75
2022-12-19T11:39:14.550Z,9.75
2022-12-19T11:41:50.391Z,6.38
2022-12-19T11:44:28.656Z,6.35
2022-12-19T11:47:05.898Z,6.18
2022-12-19T11:49:40.189Z,6.50
2022-12-19T11:52:45.210Z,6.00
2022-12-19T11:55:16.154Z,7.22
2022-12-19T11:57:46.623Z,8.38
2022-12-19T12:00:17.598Z,7.72
2022-12-19T12:03:11.852Z,7.53
2022-12-19T12:10:44.888Z,8.02
2022-12-19T12:18:11.347Z,7.25
2022-12-19T12:22:00.176Z,7.95
2022-12-19T12:30:59.231Z,8.90
2022-12-19T12:31:19.240Z,7.25
2022-12-19T12:31:23.270Z,7.13
2022-12-19T12:31:44.723Z,6.65
2022-12-19T12:32:00.736Z,7.00
2022-12-19T12:35:54.203Z,6.00
2022-12-19T12:38:37.268Z,9.95
2022-12-19T12:41:21.048Z,7.70
2022-12-19T12:44:06.129Z,8.93
2022-12-19T12:46:40.431Z,7.72
2022-12-19T12:49:24.116Z,7.78
2022-12-19T12:51:53.583Z,6.85
2022-12-19T12:54:22.898Z,6.32
2022-12-19T12:56:51.281Z,7.53
2022-12-19T12:59:25.506Z,7.95
2022-12-19T13:01:55.809Z,7.43
2022-12-19T13:04:33.004Z,7.75
2022-12-19T13:07:20.112Z,6.40
2022-12-19T13:09:54.348Z,7.35
2022-12-19T13:12:44.350Z,8.18
2022-12-19T13:15:38.104Z,6.47
2022-12-19T13:18:35.681Z,8.70
2022-12-19T13:21:08.081Z,7.57
2022-12-19T13:23:47.921Z,7.03
2022-12-19T13:26:51.336Z,7.40
2022-12-19T13:29:31.392Z,7.03
2022-12-19T13:32:14.509Z,7.68
2022-12-19T13:35:04.750Z,6.47
2022-12-19T13:39:58.051Z,7.38
2022-12-19T13:40:52.100Z,6.88
2022-12-19T13:43:42.700Z,7.70
2022-12-19T13:46:28.253Z,7.25
2022-12-19T13:49:02.617Z,8.55
2022-12-19T13:51:47.911Z,8.60
2022-12-19T13:54:25.851Z,7.03
2022-12-19T13:56:56.165Z,7.25
2022-12-19T13:59:27.940Z,7.60
2022-12-19T14:01:56.791Z,7.10
2022-12-19T14:04:30.563Z,7.85
2022-12-19T14:11:32.989Z,7.18
2022-12-19T14:13:36.210Z,8.15
2022-12-19T14:15:35.802Z,7.85
2022-12-19T14:18:42.309Z,7.13
2022-12-19T14:22:05.320Z,7.30
2022-12-19T14:24:13.331Z,6.90
2022-12-19T14:28:26.610Z,6.60
2022-12-19T14:30:26.758Z,10.00
2022-12-19T14:33:41.043Z,8.48
2022-12-19T14:36:07.600Z,9.05
2022-12-19T14:39:22.991Z,6.68
2022-12-19T14:41:08.678Z,8.43
2022-12-19T14:43:57.277Z,9.15
2022-12-19T14:54:11.397Z,7.68
2022-12-19T14:54:11.398Z,5.85
2022-12-19T14:54:55.201Z,7.43
2022-12-19T14:56:16.019Z,6.65
2022-12-19T14:58:53.445Z,8.23
2022-12-19T15:01:26.625Z,7.45
2022-12-19T15:04:50.919Z,9.13
2022-12-19T15:07:09.740Z,7.15
2022-12-19T15:11:09.160Z,8.50
2022-12-19T15:14:49.588Z,8.75
2022-12-19T15:15:46.099Z,9.13
2022-12-19T15:18:26.273Z,10.80
2022-12-19T15:20:56.950Z,7.03
2022-12-19T15:23:25.908Z,9.88
2022-12-19T15:26:05.189Z,6.80
2022-12-19T15:28:40.416Z,6.38
2022-12-19T15:31:17.908Z,6.85
2022-12-19T15:34:23.245Z,6.45
2022-12-19T15:36:35.877Z,9.38
2022-12-19T15:39:04.867Z,8.90
2022-12-19T15:41:33.184Z,6.05
2022-12-19T15:44:06.757Z,8.95
2022-12-19T15:49:04.619Z,9.05
2022-12-19T15:51:33.057Z,7.63
2022-12-19T15:54:38.165Z,9.00
2022-12-19T15:56:53.898Z,9.23
2022-12-19T15:59:34.805Z,10.27
2022-12-19T16:02:14.268Z,8.38
2022-12-19T16:04:44.357Z,7.90
2022-12-19T16:07:16.855Z,7.85
2022-12-19T16:09:45.079Z,7.78
2022-12-19T16:12:16.996Z,8.35
2022-12-19T16:14:46.024Z,9.98
2022-12-19T16:17:19.193Z,7.47
2022-12-19T16:19:50.363Z,7.10
2022-12-19T16:22:20.624Z,9.35
2022-12-19T16:24:48.969Z,8.32
2022-12-19T16:27:24.474Z,9.30
2022-12-19T16:29:53.338Z,9.98
2022-12-19T16:32:24.454Z,10.63
2022-12-19T16:34:55.053Z,7.40
2022-12-19T16:37:28.533Z,7.97
2022-12-19T16:40:00.381Z,6.63
2022-12-19T16:42:29.396Z,6.95
2022-12-19T16:44:57.598Z,7.85
2022-12-19T16:47:26.124Z,7.47
2022-12-19T16:49:56.038Z,6.53
2022-12-19T16:52:24.873Z,6.53
2022-12-19T16:54:53.431Z,7.22
2022-12-19T16:57:23.269Z,7.25
2022-12-19T16:59:52.272Z,10.70
2022-12-19T17:02:42.030Z,7.85
2022-12-19T17:05:19.587Z,7.75
2022-12-19T17:07:48.479Z,8.45
2022-12-19T17:10:21.365Z,8.30
2022-12-19T17:12:54.886Z,9.07
2022-12-19T17:15:29.406Z,6.55
2022-12-19T17:18:00.542Z,8.43
2022-12-19T17:20:35.076Z,10.65
2022-12-19T17:23:03.725Z,8.80
2022-12-19T17:25:31.986Z,8.38
2022-12-19T17:28:00.380Z,8.23
2022-12-19T17:30:29.262Z,10.10
2022-12-19T17:32:57.735Z,9.63
2022-12-19T17:35:28.869Z,9.15
2022-12-19T17:37:59.430Z,8.15
2022-12-19T17:40:29.708Z,7.65
2022-12-19T17:42:58.692Z,8.10
2022-12-19T17:45:28.539Z,9.57
2022-12-19T17:48:02.877Z,8.85
2022-12-19T17:50:35.210Z,8.52
2022-12-19T17:53:04.927Z,8.82
2022-12-19T17:55:33.636Z,8.82
2022-12-19T17:58:02.299Z,8.70
2022-12-19T18:00:33.130Z,9.70
2022-12-19T18:03:05.159Z,8.80
2022-12-19T18:05:36.959Z,7.75
2022-12-19T18:08:16.280Z,13.07
2022-12-19T18:10:45.274Z,9.52
2022-12-19T18:13:13.635Z,7.93
2022-12-19T18:15:43.026Z,8.80
2022-12-19T18:18:14.649Z,8.68
2022-12-19T18:20:44.701Z,11.55
2022-12-19T18:23:18.871Z,10.60
2022-12-19T18:25:48.214Z,10.30
2022-12-19T18:28:17.369Z,8.60
2022-12-19T18:30:47.150Z,7.93
2022-12-19T18:33:18.063Z,8.20
2022-12-19T18:35:48.703Z,11.63
2022-12-19T18:38:21.904Z,9.48
2022-12-19T18:40:52.028Z,8.40
2022-12-19T18:43:20.994Z,8.02
2022-12-19T18:45:52.285Z,10.82
2022-12-19T18:48:26.573Z,11.35
2022-12-19T18:50:55.686Z,8.05
2022-12-19T18:53:35.348Z,9.30
2022-12-19T18:56:06.129Z,9.55
2022-12-19T18:58:35.346Z,7.88
2022-12-19T19:01:08.835Z,8.32
2022-12-19T19:03:39.971Z,7.93
2022-12-19T19:06:19.298Z,8.23
2022-12-19T19:08:50.346Z,11.15
2022-12-19T19:11:18.531Z,8.82
2022-12-19T19:13:47.018Z,8.80
2022-12-19T19:16:20.090Z,8.10
2022-12-19T19:18:51.562Z,7.97
2022-12-19T19:21:20.782Z,10.07
2022-12-19T19:23:53.493Z,8.55
2022-12-19T19:26:22.174Z,8.60
2022-12-19T19:28:52.746Z,10.38
2022-12-19T19:31:24.676Z,8.18
2022-12-19T19:34:01.071Z,8.57
2022-12-19T19:36:32.165Z,7.30
2022-12-19T19:39:01.826Z,9.07
2022-12-19T19:41:30.808Z,8.70
2022-12-19T19:44:00.035Z,8.25
2022-12-19T19:46:28.680Z,9.43
2022-12-19T19:48:57.288Z,9.50
2022-12-19T19:51:25.723Z,8.25
2022-12-19T19:53:54.030Z,8.48
2022-12-19T19:56:24.072Z,9.73
2022-12-19T19:58:52.680Z,9.43
2022-12-19T20:01:21.281Z,7.10
2022-12-19T20:03:49.799Z,8.05
2022-12-19T20:06:19.290Z,7.40
2022-12-19T20:08:48.007Z,8.43
2022-12-19T20:11:16.480Z,8.75
2022-12-19T20:13:46.239Z,9.18
2022-12-19T20:16:17.306Z,6.80
2022-12-19T20:18:49.226Z,9.07
2022-12-19T20:21:18.516Z,7.25
2022-12-19T20:23:47.199Z,8.00
2022-12-19T20:26:16.816Z,6.93
2022-12-19T20:28:50.093Z,8.63
2022-12-19T20:31:19.393Z,6.20
2022-12-19T20:33:48.678Z,7.30
2022-12-19T20:36:17.925Z,5.75
2022-12-19T20:38:46.316Z,9.50
2022-12-19T20:41:15.399Z,9.73
2022-12-19T20:43:43.905Z,10.65
2022-12-19T20:46:16.110Z,6.63
2022-12-19T20:48:45.533Z,8.98
2022-12-19T20:51:14.407Z,7.00
2022-12-19T20:53:43.543Z,7.03
2022-12-19T20:56:14.442Z,6.28
2022-12-19T20:58:42.983Z,6.68
2022-12-19T21:01:16.014Z,6.30
2022-12-19T21:03:48.683Z,7.47
2022-12-19T21:06:19.330Z,8.23
2022-12-19T21:08:48.193Z,7.10
2022-12-19T21:11:17.229Z,6.28
2022-12-19T21:13:46.280Z,7.53
2022-12-19T21:16:18.510Z,7.45
2022-12-19T21:18:48.579Z,8.93
2022-12-19T21:21:19.497Z,6.55
2022-12-19T21:23:47.899Z,7.82
2022-12-19T21:26:16.267Z,7.03
2022-12-19T21:28:45.423Z,7.03
2022-12-19T21:31:17.887Z,8.32
2022-12-19T21:33:47.374Z,8.55
2022-12-19T21:36:19.277Z,5.97
2022-12-19T21:38:48.070Z,6.65
2022-12-19T21:41:19.252Z,8.48
2022-12-19T21:43:49.017Z,9.25
2022-12-19T21:46:19.472Z,6.30
2022-12-19T21:48:50.315Z,7.35
2022-12-19T21:51:20.273Z,9.38
2022-12-19T21:53:49.007Z,6.15
2022-12-19T21:56:27.061Z,7.70
2022-12-19T21:58:57.588Z,5.65
2022-12-19T22:01:27.936Z,7.13
2022-12-19T22:04:00.444Z,6.85
2022-12-19T22:06:32.239Z,7.35
2022-12-19T22:09:01.720Z,7.20
2022-12-19T22:11:30.966Z,8.20
2022-12-19T22:14:01.275Z,6.72
2022-12-19T22:16:31.227Z,5.95
2022-12-19T22:18:59.742Z,8.02
2022-12-19T22:21:28.876Z,7.68
2022-12-19T22:23:58.743Z,5.82
2022-12-19T22:26:29.521Z,6.45
2022-12-19T22:28:59.468Z,9.13
2022-12-19T22:31:30.925Z,8.13
2022-12-19T22:34:00.979Z,8.65
2022-12-19T22:36:30.873Z,9.35
2022-12-19T22:39:00.951Z,6.90
2022-12-19T22:41:30.146Z,7.43
2022-12-19T22:43:58.944Z,7.05
2022-12-19T22:46:29.340Z,8.95
2022-12-19T22:49:01.207Z,6.95
2022-12-19T22:51:30.946Z,7.68
2022-12-19T22:53:59.971Z,6.05
2022-12-19T22:56:31.520Z,9.75
2022-12-19T22:59:03.167Z,6.35
2022-12-19T23:01:33.788Z,7.93
2022-12-19T23:04:04.836Z,7.68
2022-12-19T23:06:34.931Z,8.93
2022-12-19T23:09:03.643Z,6.50
2022-12-19T23:11:33.839Z,7.10
2022-12-19T23:14:03.832Z,9.18
2022-12-19T23:16:32.311Z,5.85
2022-12-19T23:19:00.738Z,5.70
2022-12-19T23:21:30.622Z,5.95
2022-12-19T23:23:59.018Z,6.07
2022-12-19T23:26:29.967Z,5.95
2022-12-19T23:29:00.528Z,7.30
2022-12-19T23:31:29.854Z,6.22
2022-12-19T23:33:59.558Z,8.40
2022-12-19T23:37:08.824Z,6.97
2022-12-19T23:39:18.275Z,8.27
2022-12-19T23:41:47.199Z,7.40
2022-12-19T23:44:15.825Z,8.55
2022-12-19T23:46:44.263Z,7.57
2022-12-19T23:49:12.657Z,6.95
2022-12-19T23:51:42.209Z,6.85
2022-12-19T23:54:11.303Z,9.68
2022-12-19T23:56:39.848Z,8.02
2022-12-19T23:59:08.071Z,8.73
